createdAt,value
2022-07-28T00:00:34.382Z,6.38
2022-07-28T00:02:52.411Z,5.53
2022-07-28T00:05:10.901Z,5.32
2022-07-28T00:07:28.806Z,5.35
2022-07-28T00:09:46.624Z,5.47
2022-07-28T00:12:04.809Z,5.05
2022-07-28T00:14:23.284Z,5.43
2022-07-28T00:16:41.159Z,5.70
2022-07-28T00:18:59.494Z,5.82
2022-07-28T00:21:17.314Z,5.50
2022-07-28T00:23:38.810Z,5.95
2022-07-28T00:25:57.499Z,5.72
2022-07-28T00:28:15.650Z,5.07
2022-07-28T00:30:34.775Z,6.22
2022-07-28T00:32:52.802Z,6.18
2022-07-28T00:35:10.712Z,5.72
2022-07-28T00:37:28.849Z,5.57
2022-07-28T00:39:46.606Z,5.35
2022-07-28T00:42:04.652Z,5.63
2022-07-28T00:44:22.448Z,4.95
2022-07-28T00:46:41.203Z,5.40
2022-07-28T00:48:59.613Z,5.53
2022-07-28T00:51:18.282Z,6.00
2022-07-28T00:53:36.326Z,5.78
2022-07-28T00:56:03.029Z,6.35
2022-07-28T00:58:24.873Z,6.03
2022-07-28T01:00:43.075Z,6.22
2022-07-28T01:03:01.190Z,5.53
2022-07-28T01:05:44.170Z,5.75
2022-07-28T01:08:11.641Z,5.90
2022-07-28T01:10:37.295Z,5.23
2022-07-28T01:13:04.354Z,5.55
2022-07-28T01:15:36.526Z,5.50
2022-07-28T01:17:58.122Z,6.22
2022-07-28T01:20:26.902Z,5.72
2022-07-28T01:22:54.110Z,5.53
2022-07-28T01:25:48.467Z,6.07
2022-07-28T01:28:19.575Z,5.55
2022-07-28T01:30:40.671Z,5.70
2022-07-28T01:33:19.016Z,6.00
2022-07-28T01:35:42.975Z,5.55
2022-07-28T01:38:03.615Z,6.53
2022-07-28T01:40:23.934Z,5.80
2022-07-28T01:42:44.597Z,6.05
2022-07-28T01:45:03.336Z,6.15
2022-07-28T01:47:22.560Z,6.18
2022-07-28T01:49:42.652Z,5.97
2022-07-28T01:52:02.176Z,5.90
2022-07-28T01:54:22.264Z,6.32
2022-07-28T01:56:40.749Z,5.53
2022-07-28T01:59:00.689Z,5.80
2022-07-28T02:01:19.596Z,5.72
2022-07-28T02:03:38.310Z,5.03
2022-07-28T02:05:56.808Z,5.65
2022-07-28T02:08:15.351Z,5.93
2022-07-28T02:10:34.350Z,5.88
2022-07-28T02:12:53.485Z,6.00
2022-07-28T02:15:12.440Z,6.05
2022-07-28T02:17:34.163Z,5.15
2022-07-28T02:19:53.526Z,6.28
2022-07-28T02:22:12.197Z,5.30
2022-07-28T02:24:30.534Z,6.03
2022-07-28T02:26:50.436Z,6.45
2022-07-28T02:29:33.377Z,5.68
2022-07-28T02:31:53.455Z,6.35
2022-07-28T02:34:16.420Z,6.20
2022-07-28T02:36:40.765Z,4.22
2022-07-28T02:39:07.459Z,5.97
2022-07-28T02:41:28.947Z,5.57
2022-07-28T02:43:50.862Z,5.65
2022-07-28T02:46:11.559Z,5.82
2022-07-28T02:48:32.137Z,5.85
2022-07-28T02:50:50.935Z,5.50
2022-07-28T02:53:14.792Z,5.90
2022-07-28T02:55:34.397Z,5.50
2022-07-28T02:57:56.690Z,5.78
2022-07-28T03:02:36.982Z,5.97
2022-07-28T03:04:59.174Z,6.50
2022-07-28T03:07:17.677Z,5.78
2022-07-28T03:09:42.987Z,6.00
2022-07-28T03:12:00.828Z,6.07
2022-07-28T03:14:19.085Z,5.72
2022-07-28T03:16:37.123Z,6.65
2022-07-28T03:18:55.399Z,6.38
2022-07-28T03:21:13.958Z,7.30
2022-07-28T03:23:39.102Z,7.07
2022-07-28T03:26:01.467Z,6.93
2022-07-28T03:28:21.291Z,6.43
2022-07-28T03:30:43.919Z,6.68
2022-07-28T03:35:21.958Z,6.50
2022-07-28T03:37:46.081Z,6.45
2022-07-28T03:40:04.501Z,6.30
2022-07-28T03:42:23.213Z,6.80
2022-07-28T03:44:41.736Z,6.28
2022-07-28T03:46:59.749Z,6.03
2022-07-28T03:49:17.979Z,6.57
2022-07-28T03:51:36.249Z,6.78
2022-07-28T03:53:54.297Z,6.75
2022-07-28T03:56:12.368Z,6.43
2022-07-28T03:58:30.214Z,6.60
2022-07-28T04:00:49.498Z,6.70
2022-07-28T04:03:35.766Z,6.40
2022-07-28T04:05:45.715Z,6.65
2022-07-28T04:08:03.953Z,7.57
2022-07-28T04:10:21.730Z,6.63
2022-07-28T04:12:47.560Z,7.00
2022-07-28T04:15:13.639Z,6.60
2022-07-28T04:17:31.504Z,7.18
2022-07-28T04:19:49.439Z,6.78
2022-07-28T04:22:09.741Z,7.30
2022-07-28T04:24:27.966Z,6.65
2022-07-28T04:26:47.480Z,6.78
2022-07-28T04:29:05.645Z,5.95
2022-07-28T04:31:23.561Z,6.32
2022-07-28T04:33:43.010Z,6.28
2022-07-28T04:36:02.237Z,6.20
2022-07-28T04:38:20.958Z,6.90
2022-07-28T04:40:39.134Z,6.97
2022-07-28T04:42:57.161Z,7.00
2022-07-28T04:45:15.332Z,7.60
2022-07-28T04:47:33.590Z,7.47
2022-07-28T04:49:52.023Z,8.10
2022-07-28T04:52:10.424Z,7.72
2022-07-28T04:54:28.301Z,8.13
2022-07-28T04:56:46.611Z,8.77
2022-07-28T04:59:04.971Z,9.25
2022-07-28T05:01:24.213Z,8.75
2022-07-28T05:03:42.500Z,8.75
2022-07-28T05:06:00.449Z,9.15
2022-07-28T05:08:18.316Z,8.63
2022-07-28T05:10:36.215Z,8.27
2022-07-28T05:12:54.738Z,7.65
2022-07-28T05:15:12.536Z,8.27
2022-07-28T05:17:30.791Z,8.55
2022-07-28T05:19:48.759Z,8.32
2022-07-28T05:22:06.649Z,8.30
2022-07-28T05:24:24.633Z,10.85
2022-07-28T05:26:42.862Z,9.90
2022-07-28T05:29:00.698Z,9.07
2022-07-28T05:31:18.945Z,9.65
2022-07-28T05:33:37.253Z,9.10
2022-07-28T05:35:57.621Z,9.43
2022-07-28T05:38:16.001Z,9.48
2022-07-28T05:40:33.948Z,9.23
2022-07-28T05:42:51.807Z,8.98
2022-07-28T05:45:15.695Z,8.52
2022-07-28T05:47:42.001Z,8.30
2022-07-28T05:50:01.054Z,8.45
2022-07-28T05:52:18.945Z,9.18
2022-07-28T05:54:36.849Z,8.32
2022-07-28T05:56:55.085Z,8.95
2022-07-28T05:59:15.159Z,8.57
2022-07-28T06:01:37.625Z,9.32
2022-07-28T06:04:10.142Z,8.48
2022-07-28T06:06:33.269Z,9.05
2022-07-28T06:08:51.265Z,8.88
2022-07-28T06:11:10.007Z,8.32
2022-07-28T06:13:28.561Z,8.60
2022-07-28T06:15:47.806Z,9.32
2022-07-28T06:18:06.067Z,9.63
2022-07-28T06:20:24.585Z,8.35
2022-07-28T06:22:49.353Z,9.48
2022-07-28T06:25:08.557Z,8.57
2022-07-28T06:27:26.419Z,9.00
2022-07-28T06:29:44.323Z,8.80
2022-07-28T06:32:02.203Z,8.77
2022-07-28T06:34:20.679Z,8.90
2022-07-28T06:36:40.885Z,8.02
2022-07-28T06:38:59.095Z,8.75
2022-07-28T06:41:17.192Z,8.95
2022-07-28T06:43:38.750Z,8.75
2022-07-28T06:45:57.595Z,8.85
2022-07-28T06:48:15.911Z,9.30
2022-07-28T06:50:33.753Z,8.85
2022-07-28T06:52:51.918Z,8.63
2022-07-28T06:55:10.055Z,7.72
2022-07-28T06:57:33.624Z,8.38
2022-07-28T06:59:51.972Z,7.43
2022-07-28T07:02:10.100Z,8.40
2022-07-28T07:04:28.932Z,8.13
2022-07-28T07:06:46.936Z,8.68
2022-07-28T07:09:04.942Z,8.70
2022-07-28T07:11:22.828Z,8.82
2022-07-28T07:13:41.036Z,7.78
2022-07-28T07:15:58.995Z,7.75
2022-07-28T07:18:17.303Z,8.18
2022-07-28T07:20:35.290Z,8.88
2022-07-28T07:22:53.190Z,8.40
2022-07-28T07:25:12.157Z,8.35
2022-07-28T07:27:30.174Z,8.43
2022-07-28T07:29:48.435Z,7.45
2022-07-28T07:32:10.588Z,7.35
2022-07-28T07:36:47.258Z,8.45
2022-07-28T07:39:05.465Z,8.10
2022-07-28T07:41:23.773Z,7.78
2022-07-28T07:43:47.263Z,7.47
2022-07-28T07:46:08.851Z,7.50
2022-07-28T07:48:26.887Z,7.88
2022-07-28T07:50:46.268Z,7.97
2022-07-28T07:53:06.278Z,7.20
2022-07-28T07:55:24.307Z,7.00
2022-07-28T07:57:42.294Z,7.43
2022-07-28T08:00:00.302Z,7.50
2022-07-28T08:02:18.192Z,7.45
2022-07-28T08:04:37.359Z,7.47
2022-07-28T08:06:56.730Z,7.18
2022-07-28T08:09:14.667Z,7.80
2022-07-28T08:11:32.796Z,7.22
2022-07-28T08:13:51.066Z,7.45
2022-07-28T08:16:09.054Z,7.25
2022-07-28T08:18:27.420Z,7.18
2022-07-28T08:20:45.379Z,7.72
2022-07-28T08:23:03.514Z,7.45
2022-07-28T08:25:22.069Z,7.25
2022-07-28T08:27:40.581Z,6.50
2022-07-28T08:29:58.506Z,5.93
2022-07-28T08:32:17.295Z,6.50
2022-07-28T08:34:36.204Z,6.10
2022-07-28T08:36:54.549Z,6.07
2022-07-28T08:39:12.756Z,6.80
2022-07-28T08:41:33.573Z,6.90
2022-07-28T08:43:53.519Z,6.25
2022-07-28T08:46:11.948Z,5.95
2022-07-28T08:48:34.276Z,5.90
2022-07-28T08:50:53.247Z,5.63
2022-07-28T08:53:11.448Z,5.20
2022-07-28T08:55:31.584Z,5.13
2022-07-28T08:57:50.679Z,4.63
2022-07-28T09:00:10.275Z,4.00
2022-07-28T09:02:29.724Z,4.55
2022-07-28T09:04:48.408Z,4.88
2022-07-28T09:07:06.788Z,4.40
2022-07-28T09:09:27.560Z,4.85
2022-07-28T09:11:45.877Z,4.82
2022-07-28T09:14:03.821Z,4.22
2022-07-28T09:16:21.812Z,4.43
2022-07-28T09:18:39.818Z,4.57
2022-07-28T09:20:57.831Z,4.50
2022-07-28T09:23:43.275Z,4.05
2022-07-28T09:26:10.881Z,4.65
2022-07-28T09:28:29.469Z,4.32
2022-07-28T09:30:54.233Z,4.47
2022-07-28T09:33:42.224Z,5.13
2022-07-28T09:35:51.737Z,4.43
2022-07-28T09:38:10.032Z,4.78
2022-07-28T09:40:28.109Z,4.60
2022-07-28T09:42:57.191Z,4.30
2022-07-28T09:45:24.120Z,4.35
2022-07-28T09:47:43.582Z,4.32
2022-07-28T09:50:02.545Z,4.68
2022-07-28T09:52:33.401Z,4.78
2022-07-28T09:55:01.711Z,4.50
2022-07-28T09:57:27.865Z,4.47
2022-07-28T09:59:53.608Z,4.95
2022-07-28T10:02:13.975Z,4.55
2022-07-28T10:04:33.830Z,4.13
2022-07-28T10:07:01.368Z,3.70
2022-07-28T10:09:27.292Z,4.13
2022-07-28T10:11:45.278Z,3.58
2022-07-28T10:14:07.845Z,4.10
2022-07-28T10:18:43.642Z,4.22
2022-07-28T10:21:01.544Z,4.15
2022-07-28T10:23:20.199Z,4.90
2022-07-28T10:25:40.493Z,4.18
2022-07-28T10:27:59.586Z,3.75
2022-07-28T10:30:17.811Z,4.25
2022-07-28T10:32:43.392Z,3.92
2022-07-28T10:35:03.785Z,3.75
2022-07-28T10:37:23.134Z,3.65
2022-07-28T10:39:42.839Z,4.05
2022-07-28T10:42:02.062Z,3.88
2022-07-28T10:44:20.471Z,4.13
2022-07-28T10:46:38.601Z,4.40
2022-07-28T10:48:57.109Z,4.22
2022-07-28T10:51:15.546Z,4.20
2022-07-28T10:53:54.389Z,4.43
2022-07-28T10:56:19.359Z,4.38
2022-07-28T10:59:04.668Z,3.90
2022-07-28T11:01:51.617Z,4.05
2022-07-28T11:04:09.781Z,4.47
2022-07-28T11:06:47.312Z,3.53
2022-07-28T11:09:17.877Z,3.92
2022-07-28T11:11:45.951Z,3.83
2022-07-28T11:14:22.561Z,4.97
2022-07-28T11:16:43.306Z,3.85
2022-07-28T11:19:36.596Z,3.45
2022-07-28T11:22:54.872Z,3.58
2022-07-28T11:27:57.970Z,3.72
2022-07-28T11:30:38.653Z,3.60
2022-07-28T11:32:57.593Z,3.40
2022-07-28T11:35:15.565Z,3.63
2022-07-28T11:37:33.574Z,4.00
2022-07-28T11:39:51.433Z,3.38
2022-07-28T11:42:24.907Z,3.70
2022-07-28T11:44:43.177Z,3.67
2022-07-28T11:47:17.717Z,4.13
2022-07-28T11:49:35.704Z,3.75
2022-07-28T11:52:29.346Z,3.20
2022-07-28T11:54:51.291Z,3.50
2022-07-28T11:57:10.993Z,3.55
2022-07-28T11:59:37.354Z,3.67
2022-07-28T12:01:56.878Z,3.75
2022-07-28T12:04:17.142Z,4.00
2022-07-28T12:06:36.703Z,3.70
2022-07-28T12:08:54.886Z,3.85
2022-07-28T12:11:14.201Z,3.70
2022-07-28T12:13:32.479Z,4.28
2022-07-28T12:15:53.648Z,3.88
2022-07-28T12:18:13.551Z,3.80
2022-07-28T12:20:32.479Z,3.90
2022-07-28T12:22:57.120Z,3.70
2022-07-28T12:25:17.886Z,3.75
2022-07-28T12:27:38.230Z,4.32
2022-07-28T12:29:57.854Z,3.75
2022-07-28T12:32:17.588Z,4.03
2022-07-28T12:34:36.226Z,4.15
2022-07-28T12:36:57.154Z,4.00
2022-07-28T12:39:20.478Z,3.90
2022-07-28T12:41:39.034Z,4.10
2022-07-28T12:43:57.213Z,3.90
2022-07-28T12:46:20.378Z,4.50
2022-07-28T12:48:41.249Z,4.43
2022-07-28T12:50:59.818Z,4.00
2022-07-28T12:53:22.925Z,4.10
2022-07-28T12:55:43.889Z,3.47
2022-07-28T12:58:02.164Z,4.03
2022-07-28T13:00:21.781Z,3.90
2022-07-28T13:02:41.284Z,4.68
2022-07-28T13:04:59.264Z,4.22
2022-07-28T13:07:23.600Z,4.03
2022-07-28T13:09:50.194Z,3.92
2022-07-28T13:12:24.709Z,3.97
2022-07-28T13:14:45.716Z,3.83
2022-07-28T13:17:03.874Z,3.60
2022-07-28T13:19:22.347Z,3.88
2022-07-28T13:21:58.305Z,3.50
2022-07-28T13:24:18.957Z,3.78
2022-07-28T13:26:38.645Z,3.78
2022-07-28T13:29:03.217Z,3.80
2022-07-28T13:31:32.516Z,3.90
2022-07-28T13:33:50.456Z,3.90
2022-07-28T13:36:08.661Z,4.15
2022-07-28T13:38:27.373Z,3.90
2022-07-28T13:40:45.978Z,3.92
2022-07-28T13:43:04.152Z,3.50
2022-07-28T13:45:30.298Z,3.95
2022-07-28T13:47:48.739Z,3.90
2022-07-28T13:50:11.259Z,4.05
2022-07-28T13:52:34.880Z,3.83
2022-07-28T13:54:55.299Z,4.20
2022-07-28T13:57:16.254Z,3.83
2022-07-28T13:59:35.524Z,3.70
2022-07-28T14:01:56.211Z,3.78
2022-07-28T14:04:17.327Z,4.18
2022-07-28T14:06:36.220Z,3.80
2022-07-28T14:08:54.252Z,4.20
2022-07-28T14:11:15.556Z,3.70
2022-07-28T14:13:38.277Z,4.05
2022-07-28T14:16:02.531Z,4.00
2022-07-28T14:18:25.026Z,3.75
2022-07-28T14:20:44.534Z,4.10
2022-07-28T14:23:02.378Z,3.85
2022-07-28T14:25:21.515Z,3.67
2022-07-28T14:27:41.593Z,3.63
2022-07-28T14:29:59.432Z,4.00
2022-07-28T14:32:21.537Z,4.40
2022-07-28T14:34:40.072Z,3.80
2022-07-28T14:36:58.191Z,4.00
2022-07-28T14:39:18.836Z,4.20
2022-07-28T14:41:37.131Z,4.10
2022-07-28T14:43:57.034Z,3.67
2022-07-28T14:46:21.150Z,4.00
2022-07-28T14:48:40.669Z,3.80
2022-07-28T14:50:58.880Z,4.03
2022-07-28T14:53:17.555Z,4.30
2022-07-28T14:55:35.521Z,4.20
2022-07-28T14:57:55.971Z,4.10
2022-07-28T15:00:16.373Z,4.10
2022-07-28T15:02:34.615Z,3.78
2022-07-28T15:04:52.825Z,3.92
2022-07-28T15:07:10.693Z,4.35
2022-07-28T15:09:30.409Z,3.85
2022-07-28T15:11:48.619Z,3.90
2022-07-28T15:14:06.888Z,3.92
2022-07-28T15:16:25.371Z,3.83
2022-07-28T15:18:45.129Z,4.00
2022-07-28T15:21:03.101Z,3.90
2022-07-28T15:23:20.989Z,3.90
2022-07-28T15:25:39.169Z,3.67
2022-07-28T15:27:57.152Z,4.38
2022-07-28T15:30:15.453Z,4.20
2022-07-28T15:32:37.202Z,3.90
2022-07-28T15:35:02.224Z,3.90
2022-07-28T15:37:20.612Z,3.75
2022-07-28T15:39:43.257Z,3.70
2022-07-28T15:42:03.765Z,3.63
2022-07-28T15:44:25.864Z,3.97
2022-07-28T15:49:05.420Z,3.90
2022-07-28T15:51:26.223Z,4.15
2022-07-28T15:53:46.407Z,4.30
2022-07-28T15:56:05.032Z,4.50
2022-07-28T15:58:23.207Z,4.95
2022-07-28T16:00:41.247Z,5.10
2022-07-28T16:03:00.510Z,4.63
2022-07-28T16:05:18.558Z,4.63
2022-07-28T16:07:40.646Z,3.83
2022-07-28T16:10:01.519Z,4.13
2022-07-28T16:12:19.691Z,4.30
2022-07-28T16:14:37.920Z,4.65
2022-07-28T16:16:58.040Z,4.10
2022-07-28T16:19:38.611Z,4.47
2022-07-28T16:21:54.697Z,3.83
2022-07-28T16:24:13.175Z,4.57
2022-07-28T16:26:31.601Z,4.22
2022-07-28T16:28:49.560Z,4.50
2022-07-28T16:31:07.757Z,3.80
2022-07-28T16:33:25.616Z,4.28
2022-07-28T16:35:44.007Z,3.95
2022-07-28T16:38:02.962Z,4.57
2022-07-28T16:40:21.308Z,3.85
2022-07-28T16:42:39.289Z,4.32
2022-07-28T16:44:57.572Z,3.85
2022-07-28T16:47:16.589Z,4.35
2022-07-28T16:49:35.263Z,4.13
2022-07-28T16:51:54.855Z,4.45
2022-07-28T16:54:14.498Z,4.40
2022-07-28T16:56:33.225Z,4.07
2022-07-28T16:58:51.247Z,3.88
2022-07-28T17:01:09.565Z,4.18
2022-07-28T17:03:27.894Z,4.32
2022-07-28T17:05:46.092Z,4.70
2022-07-28T17:08:05.022Z,4.70
2022-07-28T17:10:27.502Z,3.95
2022-07-28T17:12:49.830Z,4.40
2022-07-28T17:15:22.397Z,4.32
2022-07-28T17:17:41.416Z,3.90
2022-07-28T17:20:02.480Z,4.00
2022-07-28T17:22:23.044Z,4.20
2022-07-28T17:24:41.251Z,3.53
2022-07-28T17:29:37.876Z,4.50
2022-07-28T17:31:55.694Z,4.55
2022-07-28T17:34:13.973Z,4.22
2022-07-28T17:36:35.537Z,4.70
2022-07-28T17:38:53.708Z,4.00
2022-07-28T17:41:13.090Z,3.90
2022-07-28T17:43:32.442Z,4.25
2022-07-28T17:45:50.893Z,4.32
2022-07-28T17:48:09.145Z,4.35
2022-07-28T17:50:27.451Z,4.55
2022-07-28T17:52:46.740Z,4.55
2022-07-28T17:55:24.081Z,4.15
2022-07-28T17:57:42.679Z,4.13
2022-07-28T18:00:01.041Z,3.80
2022-07-28T18:02:19.447Z,4.30
2022-07-28T18:04:37.413Z,4.75
2022-07-28T18:06:55.620Z,4.55
2022-07-28T18:09:14.432Z,4.45
2022-07-28T18:11:32.417Z,4.20
2022-07-28T18:14:03.778Z,4.38
2022-07-28T18:16:28.916Z,4.05
2022-07-28T18:18:48.542Z,4.57
2022-07-28T18:21:07.171Z,4.93
2022-07-28T18:23:26.213Z,5.55
2022-07-28T18:25:45.403Z,4.10
2022-07-28T18:28:03.784Z,4.15
2022-07-28T18:30:22.439Z,4.10
2022-07-28T18:32:40.242Z,4.40
2022-07-28T18:34:58.117Z,4.53
2022-07-28T18:37:15.942Z,4.60
2022-07-28T18:39:34.217Z,4.20
2022-07-28T18:41:56.252Z,3.85
2022-07-28T18:44:14.580Z,4.40
2022-07-28T18:46:32.932Z,4.20
2022-07-28T18:48:56.663Z,4.30
2022-07-28T18:51:15.377Z,4.45
2022-07-28T18:53:33.468Z,4.90
2022-07-28T18:55:51.355Z,4.40
2022-07-28T18:58:09.260Z,4.25
2022-07-28T19:00:27.311Z,4.63
2022-07-28T19:02:45.502Z,4.70
2022-07-28T19:05:03.786Z,4.70
2022-07-28T19:07:21.757Z,4.13
2022-07-28T19:09:40.358Z,4.78
2022-07-28T19:11:58.550Z,4.13
2022-07-28T19:14:17.099Z,4.20
2022-07-28T19:16:35.607Z,4.38
2022-07-28T19:18:54.659Z,4.90
2022-07-28T19:21:13.235Z,4.70
2022-07-28T19:23:31.465Z,4.22
2022-07-28T19:25:49.727Z,4.78
2022-07-28T19:28:08.092Z,4.50
2022-07-28T19:30:26.341Z,4.97
2022-07-28T19:32:44.528Z,5.05
2022-07-28T19:35:04.174Z,4.72
2022-07-28T19:37:22.745Z,4.35
2022-07-28T19:39:45.816Z,4.65
2022-07-28T19:42:06.524Z,4.72
2022-07-28T19:44:24.393Z,5.07
2022-07-28T19:46:42.779Z,4.65
2022-07-28T19:49:00.910Z,4.57
2022-07-28T19:51:18.949Z,5.03
2022-07-28T19:53:37.727Z,4.88
2022-07-28T19:55:59.008Z,4.68
2022-07-28T19:58:17.937Z,5.03
2022-07-28T20:00:35.843Z,5.10
2022-07-28T20:02:54.093Z,5.25
2022-07-28T20:05:12.145Z,4.70
2022-07-28T20:07:30.242Z,4.80
2022-07-28T20:09:49.441Z,4.40
2022-07-28T20:12:09.011Z,4.90
2022-07-28T20:14:28.109Z,4.63
2022-07-28T20:16:47.481Z,4.90
2022-07-28T20:19:07.571Z,4.80
2022-07-28T20:21:27.888Z,5.15
2022-07-28T20:23:47.016Z,4.50
2022-07-28T20:26:05.870Z,5.30
2022-07-28T20:28:24.091Z,4.88
2022-07-28T20:30:42.100Z,4.90
2022-07-28T20:33:02.497Z,4.80
2022-07-28T20:35:21.128Z,4.88
2022-07-28T20:37:40.379Z,4.55
2022-07-28T20:39:58.795Z,4.72
2022-07-28T20:42:17.452Z,5.22
2022-07-28T20:44:37.044Z,5.30
2022-07-28T20:46:58.733Z,5.47
2022-07-28T20:49:17.459Z,4.78
2022-07-28T20:51:35.868Z,5.25
2022-07-28T20:53:54.517Z,5.40
2022-07-28T20:56:12.847Z,4.90
2022-07-28T20:58:31.618Z,5.00
2022-07-28T21:00:49.827Z,5.03
2022-07-28T21:03:07.745Z,4.70
2022-07-28T21:05:26.704Z,5.35
2022-07-28T21:08:05.185Z,5.15
2022-07-28T21:10:24.490Z,4.50
2022-07-28T21:12:43.200Z,4.93
2022-07-28T21:15:02.553Z,5.22
2022-07-28T21:17:20.427Z,4.80
2022-07-28T21:19:39.305Z,5.32
2022-07-28T21:21:57.286Z,5.03
2022-07-28T21:24:15.700Z,5.13
2022-07-28T21:26:34.015Z,5.20
2022-07-28T21:29:10.719Z,5.13
2022-07-28T21:31:30.580Z,5.05
2022-07-28T21:33:48.647Z,4.88
2022-07-28T21:36:08.342Z,5.10
2022-07-28T21:38:26.526Z,4.95
2022-07-28T21:40:44.453Z,5.07
2022-07-28T21:43:02.461Z,4.72
2022-07-28T21:45:20.526Z,5.15
2022-07-28T21:47:38.414Z,4.95
2022-07-28T21:49:56.310Z,4.90
2022-07-28T21:52:14.232Z,5.00
2022-07-28T21:54:32.304Z,5.50
2022-07-28T21:56:50.397Z,5.25
2022-07-28T21:59:08.309Z,4.85
2022-07-28T22:01:27.279Z,5.25
2022-07-28T22:03:45.199Z,4.97
2022-07-28T22:06:03.073Z,4.60
2022-07-28T22:08:23.240Z,5.40
2022-07-28T22:10:41.372Z,5.32
2022-07-28T22:13:00.692Z,5.45
2022-07-28T22:15:18.685Z,5.10
2022-07-28T22:17:36.575Z,5.18
2022-07-28T22:19:54.513Z,4.93
2022-07-28T22:22:12.416Z,6.28
2022-07-28T22:24:31.000Z,5.88
2022-07-28T22:26:48.927Z,5.63
2022-07-28T22:29:06.762Z,5.50
2022-07-28T22:31:24.660Z,5.45
2022-07-28T22:33:42.534Z,5.32
2022-07-28T22:36:00.507Z,5.30
2022-07-28T22:38:18.538Z,5.38
2022-07-28T22:40:36.492Z,5.30
2022-07-28T22:42:54.353Z,5.15
2022-07-28T22:45:12.976Z,5.30
2022-07-28T22:47:31.133Z,5.15
2022-07-28T22:49:49.205Z,5.25
2022-07-28T22:52:07.811Z,5.38
2022-07-28T22:54:25.987Z,5.05
2022-07-28T22:56:43.917Z,5.07
2022-07-28T22:59:02.305Z,5.50
2022-07-28T23:01:20.625Z,4.75
2022-07-28T23:03:38.880Z,5.35
2022-07-28T23:06:00.486Z,5.43
2022-07-28T23:08:18.795Z,4.78
2022-07-28T23:10:36.670Z,4.85
2022-07-28T23:12:58.424Z,5.35
2022-07-28T23:15:17.533Z,5.35
2022-07-28T23:17:35.830Z,5.38
2022-07-28T23:19:57.989Z,5.22
2022-07-28T23:22:16.242Z,5.25
2022-07-28T23:24:34.352Z,5.18
2022-07-28T23:26:52.195Z,5.28
2022-07-28T23:29:10.067Z,5.60
2022-07-28T23:31:28.013Z,5.43
2022-07-28T23:33:56.095Z,5.65
2022-07-28T23:36:26.074Z,5.40
2022-07-28T23:38:45.371Z,5.00
2022-07-28T23:41:03.485Z,5.18
2022-07-28T23:43:21.368Z,5.60
2022-07-28T23:45:39.578Z,5.18
2022-07-28T23:47:58.979Z,4.50
2022-07-28T23:50:18.032Z,5.53
2022-07-28T23:52:38.037Z,4.90
2022-07-28T23:54:55.798Z,4.97
2022-07-28T23:57:13.713Z,5.00
2022-07-28T23:59:31.920Z,5.22
